Time;durP1;ratioP1;P1;durP2;ratioP2;P2;SDS_P1;SDS_P2;PMS_P1;PMS_P2;Temp;Humidity;BMP_temperature;BMP_pressure;BME280_temperature;BME280_humidity;BME280_pressure;Samples;Min_cycle;Max_cycle;Signal;HPM_P1;HPM_P2
2021/04/01 00:00:14;;;;;;;75.47;31.85;;;;;;;8.16;65.24;100752.82;1825904;78;21160;-75
2021/04/01 00:02:49;;;;;;;85.92;36.20;;;;;;;8.20;65.33;100750.19;1825577;78;21144;-75
2021/04/01 00:05:15;;;;;;;69.82;31.37;;;;;;;8.23;65.45;100741.12;1825712;78;21192;-75
2021/04/01 00:07:41;;;;;;;72.05;31.95;;;;;;;8.23;65.55;100739.30;1825054;78;21159;-75
2021/04/01 00:10:11;;;;;;;59.80;27.95;;;;;;;8.27;65.63;100738.52;1825083;78;21183;-75
2021/04/01 00:12:38;;;;;;;49.60;21.68;;;;;;;8.19;65.65;100731.77;1825218;78;21141;-75
2021/04/01 00:15:06;;;;;;;50.90;22.37;;;;;;;8.11;65.72;100735.14;1824535;77;22142;-75
2021/04/01 00:17:34;;;;;;;68.50;34.25;;;;;;;8.01;65.79;100726.38;1825208;77;21163;-75
2021/04/01 00:20:00;;;;;;;64.27;28.50;;;;;;;7.93;65.85;100730.23;1825010;78;21107;-75
2021/04/01 00:22:26;;;;;;;63.90;34.50;;;;;;;7.86;65.91;100722.02;1825023;78;21097;-75
2021/04/01 00:24:53;;;;;;;60.35;26.93;;;;;;;7.81;65.97;100718.95;1825209;78;21128;-75
2021/04/01 00:27:19;;;;;;;56.95;28.23;;;;;;;7.76;66.03;100720.38;1833399;77;21119;-75
2021/04/01 00:29:45;;;;;;;56.10;23.22;;;;;;;7.71;66.09;100718.14;1825348;77;21207;-75
2021/04/01 00:32:12;;;;;;;55.92;24.23;;;;;;;7.69;66.15;100708.66;1824929;78;21127;-75
2021/04/01 00:34:38;;;;;;;72.30;28.57;;;;;;;7.66;66.21;100705.80;1825040;78;21159;-75
2021/04/01 00:37:04;;;;;;;98.72;38.02;;;;;;;7.63;66.27;100696.81;1825381;77;21123;-75
2021/04/01 00:39:30;;;;;;;80.97;32.25;;;;;;;7.63;66.33;100699.95;1825044;78;21565;-75
2021/04/01 00:41:56;;;;;;;65.08;29.05;;;;;;;7.63;66.40;100693.31;1825513;77;21115;-75
2021/04/01 00:44:23;;;;;;;59.48;28.23;;;;;;;7.65;66.46;100696.64;1825131;78;21092;-75
2021/04/01 00:46:49;;;;;;;53.15;24.23;;;;;;;7.65;66.53;100693.99;1839023;77;21147;-75
2021/04/01 00:49:16;;;;;;;41.02;18.07;;;;;;;7.66;66.60;100687.23;1844819;77;21119;-75
2021/04/01 00:51:42;;;;;;;45.30;21.75;;;;;;;7.62;66.71;100681.86;1824614;78;21160;-75
2021/04/01 00:54:08;;;;;;;40.23;19.98;;;;;;;7.62;66.77;100681.86;1826020;77;21120;-75
2021/04/01 00:56:35;;;;;;;46.23;20.50;;;;;;;7.62;66.83;100683.67;1840755;77;21124;-75
2021/04/01 00:59:01;;;;;;;75.95;34.80;;;;;;;7.62;66.87;100683.67;1827740;77;21136;-75
2021/04/01 01:01:42;;;;;;;56.80;25.97;;;;;;;7.62;66.92;100683.67;1827166;77;21409;-74
2021/04/01 01:04:04;;;;;;;49.80;20.68;;;;;;;7.58;66.92;100676.97;1827012;78;21388;-75
2021/04/01 01:06:30;;;;;;;57.03;23.50;;;;;;;7.56;66.93;100673.64;1814814;77;21148;-75
2021/04/01 01:08:57;;;;;;;53.50;23.38;;;;;;;7.52;66.92;100675.74;1861389;77;21127;-75
2021/04/01 01:11:23;;;;;;;56.05;24.85;;;;;;;7.50;66.96;100673.22;1835646;77;21541;-74
2021/04/01 01:13:49;;;;;;;38.53;18.60;;;;;;;7.47;66.93;100673.51;1827898;77;21532;-75
2021/04/01 01:16:16;;;;;;;42.73;19.82;;;;;;;7.44;66.93;100672.47;1827478;78;21115;-75
2021/04/01 01:18:42;;;;;;;43.55;20.23;;;;;;;7.41;66.93;100666.12;1827672;77;21140;-75
2021/04/01 01:21:09;;;;;;;38.45;19.05;;;;;;;7.37;66.93;100667.39;1846639;77;21100;-75
2021/04/01 01:23:36;;;;;;;51.00;23.27;;;;;;;7.32;66.93;100662.98;1834408;77;21103;-75
2021/04/01 01:26:02;;;;;;;51.05;24.25;;;;;;;7.28;66.94;100663.44;1827931;77;21076;-74
2021/04/01 01:28:28;;;;;;;34.88;19.10;;;;;;;7.25;66.95;100657.91;1827686;78;21179;-74
2021/04/01 01:30:54;;;;;;;37.30;18.60;;;;;;;7.24;66.97;100653.60;1829502;77;21647;-74
2021/04/01 01:33:22;;;;;;;32.13;16.23;;;;;;;7.23;66.95;100650.59;1827503;78;21162;-74
2021/04/01 01:35:51;;;;;;;47.95;19.82;;;;;;;7.19;66.95;100653.17;1827891;77;21151;-74
2021/04/01 01:38:17;;;;;;;60.75;25.17;;;;;;;7.20;66.94;100646.91;1827704;78;21107;-74
2021/04/01 01:40:43;;;;;;;94.58;34.05;;;;;;;7.22;66.97;100646.25;1827605;78;21181;-74
2021/04/01 01:43:11;;;;;;;71.67;26.10;;;;;;;7.22;66.99;100645.41;1828121;77;21111;-74
2021/04/01 01:45:38;;;;;;;86.22;33.00;;;;;;;7.20;67.04;100642.08;1827533;78;21124;-74
2021/04/01 01:48:05;;;;;;;88.35;31.35;;;;;;;7.22;67.11;100644.93;1827822;77;21160;-74
2021/04/01 01:50:34;;;;;;;78.50;27.82;;;;;;;7.23;67.19;100643.96;1827645;77;21112;-74
2021/04/01 01:53:00;;;;;;;63.40;24.65;;;;;;;7.22;67.23;100639.63;1834858;77;21802;-74
2021/04/01 01:55:26;;;;;;;80.05;29.25;;;;;;;7.23;67.26;100632.02;1858334;77;21291;-75
2021/04/01 01:57:53;;;;;;;88.05;31.68;;;;;;;7.24;67.26;100631.05;1846969;77;21085;-74
2021/04/01 02:00:27;;;;;;;62.27;24.95;;;;;;;7.25;67.26;100633.19;1764537;81;21156;-74
2021/04/01 02:02:58;;;;;;;55.33;21.80;;;;;;;7.21;67.24;100629.18;1796445;79;21128;-74
2021/04/01 02:05:25;;;;;;;68.10;22.95;;;;;;;7.17;67.26;100625.97;1738115;81;22077;-74
2021/04/01 02:07:52;;;;;;;47.70;20.48;;;;;;;7.17;67.26;100623.80;1761510;81;21136;-74
2021/04/01 02:10:24;;;;;;;41.98;18.57;;;;;;;7.15;67.20;100618.63;1755699;81;21154;-74
2021/04/01 02:12:53;;;;;;;45.15;19.42;;;;;;;7.12;67.19;100621.57;1765958;81;21167;-74
2021/04/01 02:15:23;;;;;;;44.70;18.35;;;;;;;7.09;67.18;100617.88;1754879;81;21164;-74
2021/04/01 02:17:49;;;;;;;47.03;20.30;;;;;;;7.06;67.15;100620.83;1761155;81;21401;-74
2021/04/01 02:20:16;;;;;;;50.15;20.82;;;;;;;7.06;67.14;100615.52;1787757;79;21136;-74
2021/04/01 02:22:42;;;;;;;45.88;19.95;;;;;;;7.04;67.09;100614.80;1734873;82;21186;-74
2021/04/01 02:25:09;;;;;;;45.45;20.23;;;;;;;7.01;67.09;100608.47;1782992;79;21099;-74
2021/04/01 02:27:36;;;;;;;50.12;21.55;;;;;;;7.00;67.08;100610.80;1764289;81;21109;-74
2021/04/01 02:30:03;;;;;;;49.70;21.33;;;;;;;6.98;67.05;100610.08;1795889;79;21212;-74
2021/04/01 02:32:29;;;;;;;46.65;20.02;;;;;;;6.99;67.03;100614.41;1764995;81;21136;-74
2021/04/01 02:34:55;;;;;;;46.65;18.77;;;;;;;6.99;67.01;100616.58;1796534;79;21175;-74
2021/04/01 02:37:21;;;;;;;39.55;17.52;;;;;;;6.97;66.98;100609.72;1764774;80;21113;-74
2021/04/01 02:39:48;;;;;;;42.33;17.52;;;;;;;6.97;66.97;100611.05;1796301;79;21200;-74
2021/04/01 02:42:14;;;;;;;37.33;15.78;;;;;;;6.98;66.98;100614.05;1764811;81;21624;-74
2021/04/01 02:44:40;;;;;;;39.27;18.35;;;;;;;6.96;67.01;100610.23;1796377;79;21147;-74
2021/04/01 02:47:06;;;;;;;37.25;19.10;;;;;;;6.98;67.06;100603.45;1765145;81;21140;-74
2021/04/01 02:49:33;;;;;;;47.23;22.15;;;;;;;7.01;67.09;100604.48;1770779;79;21115;-74
2021/04/01 02:51:59;;;;;;;35.25;16.85;;;;;;;7.04;67.15;100598.90;1730115;81;21188;-74
2021/04/01 02:54:25;;;;;;;33.38;17.20;;;;;;;7.04;67.18;100597.57;1764328;80;21265;-74
2021/04/01 02:56:52;;;;;;;40.52;16.70;;;;;;;7.02;67.20;100595.56;1779930;80;21164;-74
2021/04/01 02:59:18;;;;;;;39.48;16.20;;;;;;;7.00;67.24;100592.23;1794202;80;21131;-74
2021/04/01 03:01:45;;;;;;;105.05;35.35;;;;;;;6.96;67.26;100591.68;1784844;80;21116;-74
2021/04/01 03:04:11;;;;;;;120.95;39.42;;;;;;;6.95;67.29;100592.65;1771581;79;21111;-74
2021/04/01 03:06:38;;;;;;;80.57;29.48;;;;;;;6.98;67.30;100598.15;1763835;81;22109;-74
2021/04/01 03:09:04;;;;;;;62.78;23.92;;;;;;;7.00;67.29;100587.73;1764048;81;21179;-74
2021/04/01 03:11:31;;;;;;;59.40;21.37;;;;;;;7.01;67.28;100596.53;1763777;81;21111;-74
2021/04/01 03:13:57;;;;;;;55.30;19.77;;;;;;;7.03;67.26;100592.78;1764063;81;21123;-74
2021/04/01 03:16:25;;;;;;;49.67;18.02;;;;;;;7.09;67.23;100588.72;1779248;79;21167;-74
2021/04/01 03:18:51;;;;;;;37.08;18.85;;;;;;;7.14;67.15;100589.13;1777487;80;22283;-74
2021/04/01 03:21:17;;;;;;;39.70;17.15;;;;;;;7.12;67.13;100580.47;1776967;80;21151;-74
2021/04/01 03:23:43;;;;;;;43.98;20.02;;;;;;;7.11;67.09;100581.44;1764164;80;21150;-74
2021/04/01 03:26:10;;;;;;;48.68;20.65;;;;;;;7.07;67.08;100578.75;1763936;80;21132;-74
2021/04/01 03:28:36;;;;;;;37.95;19.80;;;;;;;7.01;67.09;100577.97;1763049;80;21172;-74
2021/04/01 03:31:03;;;;;;;40.43;19.62;;;;;;;7.01;67.08;100577.97;1763862;80;21100;-74
2021/04/01 03:33:29;;;;;;;39.23;19.05;;;;;;;6.99;67.08;100575.97;1768966;80;21211;-74
2021/04/01 03:35:55;;;;;;;41.13;16.62;;;;;;;6.98;67.08;100574.29;1763270;80;21680;-74
2021/04/01 03:38:22;;;;;;;28.47;16.48;;;;;;;7.01;67.06;100570.86;1790923;79;21144;-74
2021/04/01 03:40:51;;;;;;;28.35;15.95;;;;;;;7.00;67.03;100556.44;1791482;78;21159;-74
2021/04/01 03:43:16;;;;;;;35.90;17.65;;;;;;;7.00;67.02;100560.42;1791241;78;22174;-74
2021/04/01 03:45:42;;;;;;;44.70;16.50;;;;;;;7.01;67.05;100554.11;1793708;78;21155;-73
2021/04/01 03:48:09;;;;;;;43.35;19.30;;;;;;;7.04;67.07;100556.47;1806191;78;21117;-74
2021/04/01 03:50:36;;;;;;;46.23;19.85;;;;;;;7.10;67.09;100555.08;1792737;78;21108;-74
2021/04/01 03:53:02;;;;;;;47.75;21.12;;;;;;;7.15;67.12;100556.31;1796444;78;21148;-74
2021/04/01 03:55:38;;;;;;;37.60;19.27;;;;;;;7.21;67.14;100550.94;1812518;78;21410;-74
2021/04/01 04:01:02;;;;;;;30.90;17.17;;;;;;;7.33;67.15;100545.78;1803320;78;21155;-74
2021/04/01 04:14:22;;;;;;;51.77;22.58;;;;;;;7.39;67.16;100532.77;1804776;77;22685;-75
2021/04/01 04:16:01;;;;;;;48.60;20.35;;;;;;;7.36;67.15;100533.06;1740751;81;21175;-75
2021/04/01 04:18:27;;;;;;;48.25;21.15;;;;;;;7.38;67.11;100537.75;1770033;80;22063;-75
2021/04/01 04:20:54;;;;;;;46.53;20.62;;;;;;;7.41;67.13;100541.91;1764116;80;21325;-75
2021/04/01 04:23:22;;;;;;;54.13;27.32;;;;;;;7.42;67.08;100539.62;1781380;80;21088;-75
2021/04/01 04:25:48;;;;;;;44.80;22.37;;;;;;;7.45;67.08;100536.19;1758298;80;21790;-75
2021/04/01 04:31:12;;;;;;;44.20;21.45;;;;;;;7.62;66.95;100527.08;1802849;77;22323;-75
2021/04/01 04:33:39;;;;;;;59.65;22.17;;;;;;;7.54;66.96;100526.00;1765632;80;21044;-76
2021/04/01 04:36:06;;;;;;;42.05;19.42;;;;;;;7.53;66.96;100524.31;1757842;80;21259;-75
2021/04/01 04:38:32;;;;;;;49.93;19.42;;;;;;;7.53;66.96;100521.66;1757728;80;21128;-75
2021/04/01 04:40:59;;;;;;;48.80;19.25;;;;;;;7.54;66.94;100523.34;1775403;80;21199;-75
2021/04/01 04:43:29;;;;;;;51.48;18.30;;;;;;;7.57;67.00;100517.39;1787180;80;21132;-75
2021/04/01 04:45:56;;;;;;;53.73;18.55;;;;;;;7.57;67.05;100519.55;1768864;80;21195;-75
2021/04/01 04:48:22;;;;;;;47.67;16.93;;;;;;;7.60;67.13;100519.25;1775718;80;21390;-75
2021/04/01 04:50:49;;;;;;;39.45;17.35;;;;;;;7.62;67.23;100519.12;1768530;80;21538;-75
2021/04/01 04:53:15;;;;;;;54.93;20.48;;;;;;;7.67;67.34;100518.20;1787312;80;21127;-75
2021/04/01 04:55:55;;;;;;;60.20;23.50;;;;;;;7.75;67.42;100516.94;1779255;80;21111;-75
2021/04/01 04:58:23;;;;;;;61.98;22.98;;;;;;;7.84;67.46;100511.59;1767907;80;21156;-75
2021/04/01 05:06:10;;;;;;;54.18;23.80;;;;;;;8.09;67.52;100506.05;1781283;80;21581;-75
2021/04/01 05:08:36;;;;;;;52.50;23.02;;;;;;;8.17;67.53;100499.45;1758962;80;22240;-75
2021/04/01 05:11:03;;;;;;;48.58;22.42;;;;;;;8.25;67.49;100502.20;1758059;80;21115;-75
2021/04/01 05:13:29;;;;;;;52.03;23.85;;;;;;;8.29;67.47;100507.58;1757654;80;21135;-75
2021/04/01 05:15:55;;;;;;;53.92;22.80;;;;;;;8.38;67.44;100505.81;1757909;80;21159;-75
2021/04/01 05:20:51;;;;;;;63.42;26.68;;;;;;;8.50;67.34;100507.26;1779780;80;21196;-74
2021/04/01 05:25:48;;;;;;;;;;;;;;;8.66;67.20;100511.36;1789589;80;21585;-75
2021/04/01 05:28:26;;;;;;;49.67;23.40;;;;;;;8.74;67.12;100511.42;1783559;78;20254;-75
2021/04/01 05:30:52;;;;;;;62.62;23.00;;;;;;;8.78;67.09;100502.16;1785888;80;21517;-75
2021/04/01 05:33:19;;;;;;;55.92;22.80;;;;;;;8.86;67.03;100501.37;1774514;80;22161;-75
2021/04/01 05:35:45;;;;;;;84.97;31.17;;;;;;;8.92;67.01;100496.75;1782496;80;21174;-75
2021/04/01 05:38:12;;;;;;;77.37;29.55;;;;;;;9.01;66.96;100498.46;1786977;80;21099;-75
2021/04/01 05:40:38;;;;;;;83.33;30.77;;;;;;;9.17;66.86;100505.71;1779625;80;21142;-75
2021/04/01 05:43:07;;;;;;;79.12;33.70;;;;;;;9.26;66.75;100504.26;1771602;78;21134;-75
2021/04/01 05:48:30;;;;;;;74.62;26.45;;;;;;;9.62;66.55;100498.26;1795419;77;22633;-75
2021/04/01 05:56:33;;;;;;;81.05;31.82;;;;;;;9.86;66.32;100478.34;1797212;79;21128;-75
2021/04/01 05:58:51;;;;;;;67.55;23.20;;;;;;;9.99;66.24;100481.89;1760159;79;21087;-75
2021/04/01 06:06:50;;;;;;;62.45;24.85;;;;;;;10.62;65.95;100474.61;1815306;77;21816;-75
2021/04/01 06:09:21;;;;;;;48.95;21.37;;;;;;;10.75;65.87;100469.58;1769589;80;21029;-76
2021/04/01 06:11:51;;;;;;;46.20;19.82;;;;;;;10.95;65.78;100469.03;1761581;80;22117;-76
2021/04/01 06:14:36;;;;;;;57.30;22.55;;;;;;;11.16;65.65;100468.47;1759470;80;21223;-76
2021/04/01 06:17:07;;;;;;;42.33;21.57;;;;;;;11.35;65.51;100472.08;1776178;80;21150;-76
2021/04/01 06:19:36;;;;;;;51.85;22.75;;;;;;;11.50;65.34;100475.66;1773986;80;21143;-76
2021/04/01 06:22:05;;;;;;;44.17;20.73;;;;;;;11.65;65.16;100474.43;1775927;80;21543;-76
2021/04/01 06:24:33;;;;;;;36.53;17.95;;;;;;;11.78;64.99;100472.58;1776268;80;21192;-76
2021/04/01 06:29:34;;;;;;;34.75;18.87;;;;;;;12.11;64.57;100456.64;1778986;80;21146;-76
2021/04/01 06:32:02;;;;;;;50.15;20.35;;;;;;;12.26;64.30;100458.88;1784956;80;21083;-76
2021/04/01 06:34:37;;;;;;;38.60;18.95;;;;;;;12.42;64.04;100464.08;1787712;80;21147;-76
2021/04/01 06:37:03;;;;;;;35.03;21.02;;;;;;;12.60;63.77;100464.25;1787764;80;21268;-76
2021/04/01 06:39:30;;;;;;;37.28;19.70;;;;;;;12.73;63.46;100459.97;1786031;80;21167;-76
2021/04/01 06:42:13;;;;;;;35.00;20.05;;;;;;;12.86;63.16;100466.02;1785172;80;21455;-76
2021/04/01 06:44:51;;;;;;;38.48;19.45;;;;;;;13.02;62.89;100472.53;1773334;80;21537;-76
2021/04/01 06:47:19;;;;;;;37.50;19.50;;;;;;;13.22;62.57;100472.86;1764547;80;21546;-76
2021/04/01 06:52:20;;;;;;;39.58;19.75;;;;;;;13.62;61.99;100460.28;1787951;80;21175;-76
2021/04/01 06:57:58;;;;;;;33.78;17.35;;;;;;;14.15;61.26;100454.98;1784597;77;22878;-76
2021/04/01 07:00:42;;;;;;;33.65;18.45;;;;;;;14.30;60.84;100454.92;1781468;79;21076;-77
2021/04/01 07:03:07;;;;;;;42.70;18.92;;;;;;;14.56;60.38;100446.31;1766881;80;22102;-77
2021/04/01 07:08:54;;;;;;;31.85;16.05;;;;;;;15.22;59.56;100439.52;1806174;77;22450;-77
2021/04/01 07:11:34;;;;;;;30.40;19.70;;;;;;;15.26;59.18;100436.23;1787338;79;21553;-77
2021/04/01 07:14:22;;;;;;;38.60;19.92;;;;;;;15.23;58.74;100446.05;1796864;79;21560;-77
2021/04/01 07:35:58;;;;;;;34.83;18.57;;;;;;;16.16;56.17;100422.45;1744641;81;21601;-77
2021/04/01 07:46:50;;;;;;;46.18;23.60;;;;;;;16.47;55.00;100431.27;1770497;80;21174;-77
2021/04/01 07:49:21;;;;;;;37.58;19.98;;;;;;;16.43;54.55;100450.23;1756369;80;21154;-77
2021/04/01 07:51:58;;;;;;;35.23;19.60;;;;;;;16.33;54.23;100437.16;1727433;81;21204;-77
2021/04/01 07:54:35;;;;;;;36.80;21.07;;;;;;;16.30;54.05;100448.34;1787032;80;22119;-77
2021/04/01 07:57:48;;;;;;;48.00;22.90;;;;;;;16.13;53.71;100457.02;1745444;81;21176;-78
2021/04/01 08:00:07;;;;;;;33.65;19.92;;;;;;;16.08;53.60;100440.67;1765622;80;21163;-78
2021/04/01 08:04:53;;;;;;;29.10;18.37;;;;;;;16.04;53.18;100437.56;1730212;80;21606;-78
2021/04/01 08:07:19;;;;;;;30.17;18.10;;;;;;;16.04;53.02;100437.56;1734500;81;21684;-78
2021/04/01 08:09:49;;;;;;;36.48;19.05;;;;;;;16.02;52.83;100441.47;1787229;80;21159;-78
2021/04/01 08:15:12;;;;;;;32.73;20.55;;;;;;;16.26;52.64;100437.67;1789533;79;22640;-78
2021/04/01 08:20:26;;;;;;;29.32;18.17;;;;;;;16.45;52.38;100430.14;1838643;76;22391;-77
2021/04/01 08:23:07;;;;;;;33.75;19.40;;;;;;;16.52;52.35;100439.56;1826193;77;21124;-78
2021/04/01 08:25:35;;;;;;;33.88;20.43;;;;;;;16.56;52.24;100444.05;1761235;80;22088;-77
2021/04/01 08:33:57;;;;;;;32.88;20.32;;;;;;;17.06;51.85;100436.64;1796209;78;21159;-78
2021/04/01 08:36:23;;;;;;;41.13;23.05;;;;;;;17.10;51.49;100441.88;1767592;80;22150;-78
2021/04/01 08:38:49;;;;;;;43.55;24.30;;;;;;;16.98;51.30;100435.50;1778258;80;21231;-77
2021/04/01 08:41:48;;;;;;;50.23;23.75;;;;;;;16.92;51.17;100429.62;1772342;80;21144;-78
2021/04/01 08:44:59;;;;;;;44.43;21.87;;;;;;;16.92;51.09;100433.11;1786571;79;21171;-78
2021/04/01 08:48:10;;;;;;;29.82;19.12;;;;;;;16.92;51.01;100430.97;1744013;81;21310;-78
2021/04/01 08:50:59;;;;;;;32.88;20.68;;;;;;;16.87;50.96;100441.53;1725958;83;22059;-78
2021/04/01 08:53:36;;;;;;;32.05;19.60;;;;;;;16.91;50.98;100444.12;1755339;81;21175;-78
2021/04/01 08:56:24;;;;;;;29.57;17.85;;;;;;;16.84;50.86;100445.48;1751533;81;21131;-78
2021/04/01 08:59:24;;;;;;;33.25;19.73;;;;;;;16.70;50.79;100441.66;1756241;81;21168;-77
2021/04/01 09:01:52;;;;;;;;;;;;;;;16.59;50.79;100436.89;1758056;80;21154;-77
2021/04/01 09:04:23;;;;;;;33.65;19.48;;;;;;;16.52;50.75;100434.17;1756050;81;21201;-77
2021/04/01 09:06:52;;;;;;;33.95;19.62;;;;;;;16.36;50.69;100430.02;1755845;81;21116;-77
2021/04/01 09:09:24;;;;;;;32.08;18.60;;;;;;;16.32;50.64;100436.87;1755550;81;21142;-77
2021/04/01 09:14:35;;;;;;;32.58;19.65;;;;;;;16.56;50.53;100435.97;1791209;77;22782;-77
2021/04/01 09:17:10;;;;;;;37.30;19.27;;;;;;;16.64;50.49;100443.84;1779820;79;21191;-77
2021/04/01 09:19:41;;;;;;;36.55;20.70;;;;;;;16.68;50.38;100446.41;1779837;79;21273;-78
2021/04/01 09:22:26;;;;;;;30.82;18.75;;;;;;;16.69;50.19;100446.72;1776038;79;21227;-78
2021/04/01 09:25:00;;;;;;;46.25;23.32;;;;;;;16.66;50.12;100444.45;1769520;79;21167;-78
2021/04/01 09:27:26;;;;;;;42.50;20.02;;;;;;;16.65;50.06;100445.48;1789019;80;21179;-78
2021/04/01 09:30:08;;;;;;;44.55;21.02;;;;;;;16.76;49.98;100451.08;1756858;80;21235;-78
2021/04/01 09:32:37;;;;;;;38.20;20.57;;;;;;;16.92;49.93;100441.73;1760362;80;22105;-78
2021/04/01 09:35:06;;;;;;;46.92;25.88;;;;;;;17.02;49.80;100444.83;1736117;81;22110;-78
2021/04/01 09:37:32;;;;;;;35.60;20.30;;;;;;;17.08;49.69;100445.33;1782415;80;21144;-78
2021/04/01 09:40:10;;;;;;;33.48;18.30;;;;;;;17.11;49.60;100445.41;1757939;80;21588;-78
2021/04/01 09:42:45;;;;;;;39.90;18.15;;;;;;;17.12;49.58;100453.30;1703586;84;21165;-78
2021/04/01 09:45:14;;;;;;;53.13;26.50;;;;;;;17.15;49.57;100454.22;1754183;81;21276;-78
2021/04/01 09:47:49;;;;;;;45.73;24.20;;;;;;;17.13;49.54;100453.62;1760895;80;21211;-77
2021/04/01 09:50:16;;;;;;;92.30;42.93;;;;;;;17.08;49.43;100456.10;1771369;80;21581;-77
2021/04/01 09:52:57;;;;;;;56.13;27.98;;;;;;;17.10;49.30;100457.25;1756939;80;21291;-78
2021/04/01 09:55:24;;;;;;;38.98;21.50;;;;;;;17.08;49.14;100458.80;1736807;81;21128;-78
2021/04/01 09:57:52;;;;;;;39.05;19.05;;;;;;;17.07;49.05;100453.09;1754279;80;22130;-79
2021/04/01 10:03:15;;;;;;;31.12;16.73;;;;;;;17.29;48.83;100447.75;1771595;80;21151;-78
2021/04/01 10:05:45;;;;;;;27.60;16.45;;;;;;;17.44;48.71;100448.33;1757133;80;21127;-78
2021/04/01 10:08:12;;;;;;;34.00;18.40;;;;;;;17.51;48.42;100447.47;1769928;80;21156;-78
2021/04/01 10:10:41;;;;;;;30.48;16.75;;;;;;;17.48;48.05;100440.13;1756713;80;22299;-78
2021/04/01 10:13:20;;;;;;;32.65;18.70;;;;;;;17.51;47.86;100444.77;1767022;80;21561;-78
2021/04/01 10:15:47;;;;;;;38.95;19.17;;;;;;;17.54;47.64;100430.86;1754245;80;21597;-78
2021/04/01 10:18:17;;;;;;;48.85;22.05;;;;;;;17.55;47.41;100436.56;1747340;80;21171;-78
2021/04/01 10:20:53;;;;;;;38.73;19.55;;;;;;;17.49;47.28;100439.06;1752143;80;21604;-78
2021/04/01 10:23:16;;;;;;;44.77;22.45;;;;;;;17.57;47.21;100447.98;1765359;80;21684;-78
2021/04/01 10:25:55;;;;;;;37.35;20.52;;;;;;;17.56;47.11;100451.72;1759872;80;21175;-77
2021/04/01 10:28:34;;;;;;;33.15;18.55;;;;;;;17.58;47.02;100452.34;1760003;80;21136;-77
2021/04/01 10:30:56;;;;;;;37.95;20.37;;;;;;;17.60;46.96;100451.59;1767029;80;21204;-78
2021/04/01 10:33:40;;;;;;;35.83;19.42;;;;;;;17.61;46.94;100451.91;1751545;81;21212;-78
2021/04/01 10:36:08;;;;;;;51.13;33.58;;;;;;;17.68;46.90;100451.36;1757153;80;21290;-78
2021/04/01 10:38:36;;;;;;;33.23;19.85;;;;;;;17.73;46.79;100442.12;1742237;82;21159;-78
2021/04/01 10:41:11;;;;;;;39.75;18.77;;;;;;;17.83;46.80;100452.75;1740716;82;21168;-78
2021/04/01 10:43:40;;;;;;;36.08;19.65;;;;;;;17.91;46.73;100444.90;1726785;83;21167;-78
2021/04/01 10:46:19;;;;;;;35.30;18.85;;;;;;;17.98;46.70;100439.48;1744276;80;21140;-79
2021/04/01 10:48:51;;;;;;;32.70;18.42;;;;;;;17.97;46.58;100430.56;1753052;81;21657;-78
2021/04/01 10:51:18;;;;;;;36.85;19.95;;;;;;;18.01;46.51;100434.48;1743694;81;21608;-78
2021/04/01 10:53:45;;;;;;;31.77;19.62;;;;;;;18.10;46.44;100433.17;1708673;82;21199;-78
2021/04/01 10:56:13;;;;;;;37.45;19.15;;;;;;;18.23;46.35;100437.12;1742202;82;21141;-78
2021/04/01 10:58:54;;;;;;;34.50;17.90;;;;;;;18.39;46.31;100434.41;1742608;82;21522;-78
2021/04/01 11:01:25;;;;;;;27.15;16.00;;;;;;;18.53;46.11;100425.71;1754563;80;21818;-78
2021/04/01 11:03:56;;;;;;;30.57;14.95;;;;;;;18.67;45.62;100420.49;1757254;81;21644;-78
2021/04/01 11:06:22;;;;;;;26.12;13.65;;;;;;;18.74;44.76;100432.90;1748078;80;21521;-78
2021/04/01 11:08:50;;;;;;;22.20;12.55;;;;;;;18.83;43.69;100428.02;1743259;80;21128;-78
2021/04/01 11:11:17;;;;;;;29.87;12.45;;;;;;;18.93;43.02;100431.86;1760964;80;21148;-78
2021/04/01 11:13:46;;;;;;;23.95;13.78;;;;;;;19.13;42.56;100434.89;1767405;80;21206;-78
2021/04/01 11:16:15;;;;;;;24.72;12.63;;;;;;;19.26;41.97;100442.33;1759729;81;21138;-78
2021/04/01 11:18:50;;;;;;;33.83;12.43;;;;;;;19.29;40.67;100440.52;1759453;81;21645;-78
2021/04/01 11:21:18;;;;;;;23.75;11.43;;;;;;;19.24;39.56;100439.56;1757976;81;21159;-78
2021/04/01 11:23:44;;;;;;;23.47;10.90;;;;;;;19.22;39.15;100435.72;1720696;81;21152;-78
2021/04/01 11:26:11;;;;;;;21.42;12.25;;;;;;;19.17;38.90;100443.69;1733697;82;21206;-78
2021/04/01 11:28:49;;;;;;;22.05;11.33;;;;;;;19.12;38.76;100437.29;1747733;81;21151;-78
2021/04/01 11:31:24;;;;;;;23.73;11.15;;;;;;;19.16;38.76;100437.97;1730375;81;21200;-78
2021/04/01 11:33:52;;;;;;;24.15;10.45;;;;;;;19.18;38.43;100442.62;1755608;81;21436;-78
2021/04/01 11:36:20;;;;;;;34.55;12.03;;;;;;;19.19;38.29;100444.28;1757114;81;21189;-78
2021/04/01 11:38:51;;;;;;;26.27;10.82;;;;;;;19.16;38.12;100436.63;1745941;81;21164;-78
2021/04/01 11:41:20;;;;;;;19.60;8.40;;;;;;;19.24;38.34;100447.15;1744467;81;21139;-78
2021/04/01 11:43:58;;;;;;;16.20;7.75;;;;;;;19.26;38.27;100448.26;1760280;81;21227;-77
2021/04/01 11:46:29;;;;;;;25.50;9.85;;;;;;;19.26;38.44;100443.69;1760029;81;21898;-78
2021/04/01 11:48:58;;;;;;;19.20;10.03;;;;;;;19.36;38.56;100438.56;1734387;81;21176;-77
2021/04/01 11:51:31;;;;;;;18.35;7.90;;;;;;;19.38;38.57;100439.19;1759948;81;21891;-77
2021/04/01 11:53:58;;;;;;;25.17;7.17;;;;;;;19.52;38.84;100439.05;1758963;81;21162;-78
2021/04/01 11:56:41;;;;;;;19.20;5.33;;;;;;;19.64;38.93;100441.27;1759746;81;21167;-78
2021/04/01 11:59:19;;;;;;;14.85;5.70;;;;;;;19.67;38.85;100429.98;1743673;81;21143;-78
2021/04/01 12:01:56;;;;;;;13.80;6.05;;;;;;;19.48;38.85;100431.91;1737416;81;21223;-78
2021/04/01 12:04:27;;;;;;;14.07;6.20;;;;;;;19.30;39.05;100429.19;1759553;81;21191;-78
2021/04/01 12:06:51;;;;;;;15.63;6.10;;;;;;;19.17;39.29;100424.77;1728249;82;21191;-78
2021/04/01 12:09:18;;;;;;;15.05;4.90;;;;;;;19.11;39.42;100423.46;1729422;83;21164;-78
2021/04/01 12:11:45;;;;;;;53.92;8.20;;;;;;;19.13;39.56;100424.91;1729321;83;21179;-78
2021/04/01 12:14:15;;;;;;;26.23;5.90;;;;;;;19.12;39.67;100419.20;1749275;80;21191;-78
2021/04/01 12:16:44;;;;;;;16.15;5.53;;;;;;;19.04;39.86;100422.19;1744360;81;25233;-78
2021/04/01 12:19:11;;;;;;;16.70;6.40;;;;;;;19.06;40.12;100420.10;1758171;81;21787;-77
2021/04/01 12:21:38;;;;;;;19.10;8.03;;;;;;;19.18;40.42;100406.64;1759382;81;22410;-78
2021/04/01 12:24:06;;;;;;;13.25;5.35;;;;;;;19.23;40.43;100408.98;1759162;81;21589;-78
2021/04/01 12:26:44;;;;;;;16.60;6.87;;;;;;;19.19;40.45;100411.00;1759557;81;21176;-78
2021/04/01 12:29:11;;;;;;;16.60;7.10;;;;;;;19.18;40.57;100414.75;1752855;81;22195;-78
2021/04/01 12:31:39;;;;;;;15.55;6.60;;;;;;;19.22;40.61;100420.84;1758851;81;21140;-78
2021/04/01 12:34:10;;;;;;;19.45;8.53;;;;;;;19.20;40.59;100428.89;1759413;81;21573;-78
2021/04/01 12:36:36;;;;;;;26.37;8.88;;;;;;;19.11;40.53;100429.70;1739290;81;21222;-78
2021/04/01 12:39:06;;;;;;;60.92;31.33;;;;;;;19.00;40.55;100422.33;1729431;83;21179;-78
2021/04/01 12:41:36;;;;;;;27.30;9.03;;;;;;;18.92;40.56;100423.99;1738641;81;21246;-78
2021/04/01 12:44:03;;;;;;;19.02;8.13;;;;;;;18.89;40.57;100432.00;1759430;81;25969;-78
2021/04/01 12:46:42;;;;;;;19.80;9.58;;;;;;;18.83;40.54;100436.13;1738447;81;21156;-78
2021/04/01 12:49:14;;;;;;;15.98;8.50;;;;;;;18.86;40.52;100427.56;1749288;81;21210;-78
2021/04/01 12:51:48;;;;;;;17.52;7.87;;;;;;;18.92;40.59;100419.94;1756811;81;21147;-78
2021/04/01 12:54:19;;;;;;;30.45;8.85;;;;;;;18.95;40.67;100423.55;1759562;81;21208;-78
2021/04/01 12:56:54;;;;;;;26.57;8.53;;;;;;;18.95;40.70;100415.44;1759520;81;21609;-78
2021/04/01 12:59:33;;;;;;;19.37;8.50;;;;;;;18.91;40.67;100416.92;1759528;81;21143;-79
2021/04/01 13:04:55;;;;;;;29.57;11.97;;;;;;;18.92;40.87;100418.59;1810349;78;22534;-78
2021/04/01 13:10:31;;;;;;;31.12;10.35;;;;;;;18.85;41.01;100415.12;1796324;79;21198;-78